Tuesday, October 16, 2018, 11:41 PM GMT
Back to Local

CYCX, Gagetown Can-Mil

Location: , , Canada Lat: 45.833
Local Time: 11:41 PM GMT (23:41 GMT) Lon: -66.433
Time Zone: GMT Elev: 167 ft

Show me the last for .
Show Decoded

2018-10-16 23:00 METAR CYCX 162300Z 27012G19KT 15SM FEW092 06/M03 A2982 RMK AC1 DA-665FT SLP099 =
2018-10-16 22:00 METAR CYCX 162200Z 27015G20KT 15SM FEW044 FEW090 07/M03 A2978 RMK SC1AC1
                 DA-497FT SLP086 =
2018-10-16 21:00 METAR CYCX 162100Z 28010G20KT 15SM FEW051 09/M03 A2975 RMK SC1 DA-279FT SLP076 =
2018-10-16 20:00 METAR CYCX 162000Z 28012G17KT 15SM FEW051 10/M02 A2972 RMK SC2 DA-69FT SLP067 =
2018-10-16 19:00 METAR CYCX 161900Z 28012G20KT 15SM FEW051 11/M01 A2970 RMK SC2 DA-7FT SLP061 =
2018-10-16 18:00 METAR CYCX 161800Z 25015G22KT 15SM SCT047 11/M00 A2969 RMK CU3 DA81FT SLP054 =
2018-10-16 17:00 METAR CYCX 161700Z 27020G27KT 15SM SCT047 10/M01 A2967 RMK CU3 DA-31FT SLP049 =
2018-10-16 16:00 METAR CYCX 161600Z 26019G32KT 15SM SCT047 10/00 A2966 RMK CU3 DA-49FT SLP045 =
2018-10-16 15:00 METAR CYCX 161500Z 27021G27KT 15SM BKN044 09/M01 A2964 RMK SC6 DA-153FT CU
                 ASOCTD SLP040 =
2018-10-16 14:00 METAR CYCX 161400Z 26015G30KT 15SM BKN040 08/M01 A2961 RMK CU5 DA-215FT SLP028 =
2018-10-16 13:00 METAR CYCX 161300Z 27021G30KT 15SM BKN044 07/M01 A2960 RMK SC7 DA-340FT SLP025 =
2018-10-16 12:00 METAR CYCX 161200Z 26014G26KT 15SM BKN042 06/M01 A2955 RMK SC6 DA-353FT SLP010 =
2018-10-16 11:00 METAR CYCX 161100Z 25013G20KT 15SM FEW042 FEW070 06/00 A2952 RMK SC1AC1 DA-363FT
                 SLP997 =
2018-10-16 10:00 METAR CYCX 161000Z 26010G18KT 12SM FEW049 BKN078 07/02 A2949 RMK SC1AC4 DA-172FT
                 SLP988 =
2018-10-16 09:00 METAR CYCX 160900Z 26012G18KT 12SM FEW035 OVC070 09/05 A2947 RMK SC2AC6 DA119FT
                 SLP979 =
2018-10-16 08:37 METAR CYCX 160837Z 26014G20KT 12SM SCT014 OVC060 10/07 A2945 RMK SC4SC4 DA279FT
                 SLP973 =
2018-10-16 08:00 METAR CYCX 160800Z 29011G18KT 8SM -SHRA BKN020 OVC040 11/09 A2943 RMK SC5SC3
                 DA456FT SLP967 =
2018-10-16 07:00 METAR CYCX 160700Z 26007KT 8SM -SHRA BKN007 OVC030 14/13 A2940 RMK SF5SC3
                 DA858FT SLP956 =
2018-10-16 06:42 METAR CYCX 160642Z 25009G18KT 4SM -SHRA BR BKN007 OVC030 14/13 A2940 RMK SF5SC3
                 DA869FT SLP957 =
2018-10-16 06:30 METAR CYCX 160630Z 28018KT 8SM SHRA BKN004 OVC012 14/13 A2942 RMK SF6SC2 DA852FT
                 SLP963 =
2018-10-16 06:00 METAR CYCX 160600Z 20008KT 8SM -RA OVC012 15/14 A2941 RMK SC8 DA941FT PCPN VRY
                 LGT SLP961 =
2018-10-16 05:35 METAR CYCX 160535Z 19007KT 3SM -RA BR OVC011 14/14 A2943 RMK SC8 DA880FT SLP968
                 =
2018-10-16 05:00 METAR CYCX 160500Z 21005KT 6SM -RA BKN009 OVC030 14/13 A2946 RMK SF6SC2 DA818FT
                 PRESFR SLP977 =
2018-10-16 04:00 METAR CYCX 160400Z 19008KT 170V230 6SM -RA BR BKN009 OVC030 13/11 A2952 RMK
                 SF7SC1 DA631FT SLP997 =
2018-10-16 03:52 METAR CYCX 160352Z 20008KT 5SM -RA BR BKN009 OVC030 13/11 A2952 RMK SF7SC1
                 DA627FT SLP999 =
2018-10-16 03:00 METAR CYCX 160300Z 18012G17KT 3SM SHRA BR BKN008 OVC015 13/12 A2958 RMK SF6SC2
                 DA479FT PRESFR SLP016 =
2018-10-16 02:57 METAR CYCX 160257Z 17012G17KT 4SM SHRA BR BKN010 OVC015 13/12 A2958 RMK SF6SC2
                 DA476FT PRESFR SLP017 =
2018-10-16 02:00 METAR CYCX 160200Z 17014G21KT 6SM -DZ BR BKN010 OVC032 12/11 A2964 RMK SF6SC2
                 DA340FT PRESFR SLP040 =
2018-10-16 01:00 METAR CYCX 160100Z 17011G16KT 6SM -DZ BKN010 OVC032 12/09 A2971 RMK ST6SC2
                 DA177FT SLP061 =
2018-10-16 00:00 METAR CYCX 160000Z 17012G18KT 12SM -DZ SCT010 BKN032 OVC044 11/10 A2976 RMK
                 ST3SC4SC1 DA110FT PRESFR SLP080 =

Support USWX by starting your Amazon purchase here.